Terminal Aerodrome Forecast
Issued by NWS

Home | Current Version | Previous Version | Text Only | Print | Product List | Glossary On
Versions: 1 2 3 4 5 6 7 8 9 10 11 12 13
033
FTUS43 KAPX 201236 AAA
TAFMBL
TAF AMD
KMBL 201236Z 2013/2112 00000KT 5SM BR OVC006
      TEMPO 2013/2015 1 1/2SM BR OVC002
     FM201500 VRB03KT P6SM BKN012
     FM201600 18005KT P6SM FEW250
     FM210300 16004KT P6SM VCTS BKN080CB
     FM210600 VRB03KT P6SM BKN040=

USA.gov is the U.S. government's official web portal to all federal, state and local government web resources and services.